Terminal Aerodrome Forecast
Issued by NWS Dodge City, KS

Home | Current Version | Previous Version | Graphics & Text | Print | Product List | Glossary Off
Versions: 1 2 3 4 5 6 7 8 9 10 11 12 13 14

000
FTUS43 KDDC 221120
TAFDDC
TAF
KDDC 221120Z 2212/2312 34008KT P6SM BKN080
     FM221600 36012KT P6SM SCT070
     FM230200 35007KT P6SM FEW250
     FM230600 VRB03KT P6SM SKC=

USA.gov is the U.S. government's official web portal to all federal, state and local government web resources and services.